Asheville, NC

1:55 AM EDT on April 01, 2015 (GMT -0400)
Middle Mountain, Black Mountain, NC | | Change Station
CLOSE
Current Station
Personal Weather Station
Location: Black Mountain, NC
Elevation: 2776 ft
Nearby Weather Stations

Elev 2776 ft 35.65 °N, 82.33 °W | Updated 11 seconds ago

Clear
Clear
59.2 °F
Feels Like 59.2 °F
N
3.0
Wind Variable Wind from West
Gusts 11.0 mph

Today
High -- | Low -- °F
--% Chance of Precip.
Yesterday
High -- | Low -- °F
Precip. -- in
7:16 AM 7:50 PM
Waxing Gibbous, 91% visible
Pressure 29.86 in
Visibility 10.0 miles
Clouds Clear
Dew Point 39 °F
Humidity 47%
Rainfall 0.00 in
Snow Depth Not available.
UV 0 out of 12
Pollen 9.90 out of 12
Air Quality Not available.
Flu Activity Not available.
METAR KAVL 010454Z AUTO 30006KT 10SM CLR 14/04 A2991 RMK AO2 SLP112 T01440044 402330006

More Conditions Fewer Conditions

Pressure 29.86 in
Visibility 10.0 miles
Clouds Clear
Dew Point 39 °F
Humidity 47%
Rainfall 0.00 in
Snow Depth Not available.
UV 0 out of 12
Pollen 9.90 out of 12
Air Quality Not available.
Flu Activity Not available.
METAR KAVL 010454Z AUTO 30006KT 10SM CLR 14/04 A2991 RMK AO2 SLP112 T01440044 402330006

More Conditions Fewer Conditions

10-Day Weather Forecast

Almanac

Astronomy

Apr. 01, 2015 Rise Set
Actual Time
Civil Twilight
Nautical Twilight
Astronomical Twilight
Moon
Length of Visible Light
Length of Day
Tomorrow will be .
, % of the Moon is Illuminated

Today's Extremes

State Highs State Lows

Community

WunderPhotos

Upload Photos

1,809,919 photos uploaded!

WunderBlogs® & News

Nearby

Air Quality

  Air Quality AQ Index Pollutant
Not available.

Snow Depth

Station Depth Elevation

Earthquake Activity

City Distance Mag. Time & Date
Minimum magnitude displayed is 2.5.

Coastal Water Temperatures

Place Temperature

Stations

Nearby Weather Stations

Station Location Temp. Windchill Dew Point Humidity Wind Precip. Elev Updated Type